Time;durP1;ratioP1;P1;durP2;ratioP2;P2;SDS_P1;SDS_P2;PMS_P1;PMS_P2;Temp;Humidity;BMP_temperature;BMP_pressure;BME280_temperature;BME280_humidity;BME280_pressure;Samples;Min_cycle;Max_cycle;Signal;HPM_P1;HPM_P2
2023/08/26 00:00:15;;;;;;;19.00;16.37;;;20.80;99.50;;;;;;5072541;28;20523;-61
2023/08/26 00:02:41;;;;;;;21.07;16.87;;;20.70;99.70;;;;;;5072602;28;20460;-60
2023/08/26 00:05:09;;;;;;;20.50;17.63;;;20.70;99.90;;;;;;5072701;28;20448;-61
2023/08/26 00:07:36;;;;;;;23.00;18.10;;;20.70;99.90;;;;;;5072590;28;20441;-61
2023/08/26 00:10:03;;;;;;;20.90;18.30;;;20.60;99.90;;;;;;5072599;28;20855;-61
2023/08/26 00:12:30;;;;;;;19.63;16.80;;;20.60;99.90;;;;;;5072191;28;20842;-62
2023/08/26 00:14:56;;;;;;;20.53;17.43;;;20.50;99.90;;;;;;5074880;28;20444;-63
2023/08/26 00:17:23;;;;;;;18.83;16.80;;;20.50;99.90;;;;;;5076703;28;20479;-62
2023/08/26 00:19:50;;;;;;;22.67;18.17;;;20.40;99.90;;;;;;5077178;28;20891;-62
2023/08/26 00:22:18;;;;;;;21.10;18.87;;;20.40;99.90;;;;;;5076310;28;20844;-62
2023/08/26 00:24:45;;;;;;;20.60;18.37;;;20.40;99.90;;;;;;5076154;28;20954;-63
2023/08/26 00:27:12;;;;;;;24.37;17.37;;;20.30;99.90;;;;;;5076198;28;20459;-62
2023/08/26 00:29:39;;;;;;;20.83;18.47;;;20.20;99.90;;;;;;5075894;28;20607;-62
2023/08/26 00:32:06;;;;;;;24.10;19.50;;;20.10;99.90;;;;;;5075922;28;20464;-62
2023/08/26 00:34:33;;;;;;;20.80;18.63;;;20.10;99.90;;;;;;5075850;28;20448;-62
2023/08/26 00:37:00;;;;;;;16.13;14.63;;;20.00;99.90;;;;;;5075787;28;20476;-62
2023/08/26 00:39:28;;;;;;;15.40;12.60;;;19.80;99.90;;;;;;5076159;28;20456;-62
2023/08/26 00:41:55;;;;;;;11.93;10.47;;;19.70;99.30;;;;;;5075798;28;20471;-62
2023/08/26 00:44:22;;;;;;;12.40;10.13;;;19.50;98.60;;;;;;5076254;28;20448;-63
2023/08/26 00:46:49;;;;;;;10.30;9.30;;;19.30;97.20;;;;;;5075588;28;20818;-62
2023/08/26 00:49:18;;;;;;;9.90;7.90;;;19.20;97.20;;;;;;5075607;28;20457;-62
2023/08/26 00:51:44;;;;;;;9.27;8.20;;;19.10;97.60;;;;;;5075692;28;20608;-62
2023/08/26 00:54:12;;;;;;;8.90;8.00;;;19.00;97.40;;;;;;5075531;28;20444;-63
2023/08/26 00:56:40;;;;;;;12.73;8.30;;;18.90;97.30;;;;;;5075213;28;20850;-62
2023/08/26 00:59:07;;;;;;;10.20;8.30;;;18.90;97.60;;;;;;5075354;28;20444;-62
2023/08/26 01:01:34;;;;;;;11.00;8.27;;;18.80;97.00;;;;;;5075412;28;20471;-62
2023/08/26 01:04:01;;;;;;;15.37;6.90;;;18.70;96.90;;;;;;5075332;28;20495;-62
2023/08/26 01:06:27;;;;;;;8.17;7.13;;;18.60;96.80;;;;;;5075274;28;20444;-63
2023/08/26 01:08:55;;;;;;;8.57;6.30;;;18.50;97.00;;;;;;5074982;28;20472;-62
2023/08/26 01:11:25;;;;;;;9.57;6.90;;;18.40;96.70;;;;;;5075101;28;20464;-62
2023/08/26 01:14:01;;;;;;;7.47;6.23;;;18.20;96.70;;;;;;5075021;28;20425;-62
2023/08/26 01:16:31;;;;;;;9.77;5.57;;;18.10;96.60;;;;;;5075353;28;20424;-62
2023/08/26 01:18:59;;;;;;;6.77;5.93;;;18.00;96.10;;;;;;5075022;28;20433;-62
2023/08/26 01:21:34;;;;;;;7.40;5.13;;;17.80;96.40;;;;;;5075056;28;20477;-62
2023/08/26 01:24:03;;;;;;;4.60;3.87;;;17.80;96.10;;;;;;5075025;28;20429;-62
2023/08/26 01:26:30;;;;;;;5.53;3.20;;;17.70;95.90;;;;;;5073846;28;20965;-62
2023/08/26 01:28:56;;;;;;;4.30;2.93;;;17.70;95.20;;;;;;5074908;28;20455;-62
2023/08/26 01:31:23;;;;;;;3.90;2.67;;;17.70;94.90;;;;;;5074767;28;20460;-62
2023/08/26 01:33:57;;;;;;;4.00;3.17;;;17.60;94.80;;;;;;5074898;28;20448;-62
2023/08/26 01:36:25;;;;;;;5.07;3.10;;;17.60;94.20;;;;;;5074401;28;20906;-63
2023/08/26 01:38:54;;;;;;;5.00;3.90;;;17.50;94.10;;;;;;5074705;28;20451;-62
2023/08/26 01:41:24;;;;;;;5.00;3.20;;;17.50;94.20;;;;;;5074539;28;20471;-62
2023/08/26 01:43:51;;;;;;;3.40;3.10;;;17.50;94.30;;;;;;5074147;28;20455;-62
2023/08/26 01:46:18;;;;;;;4.47;2.97;;;17.50;94.10;;;;;;5074541;28;20467;-62
2023/08/26 01:48:45;;;;;;;3.63;2.70;;;17.50;94.50;;;;;;5074466;28;20444;-62
2023/08/26 01:51:13;;;;;;;5.00;2.60;;;17.50;94.20;;;;;;5074270;28;20493;-62
2023/08/26 01:53:39;;;;;;;3.13;2.43;;;17.50;94.40;;;;;;5074218;28;20437;-63
2023/08/26 01:56:06;;;;;;;4.70;2.70;;;17.50;94.50;;;;;;5074326;28;20444;-62
2023/08/26 01:58:34;;;;;;;8.57;3.10;;;17.50;94.20;;;;;;5074142;28;20488;-62
2023/08/26 02:01:05;;;;;;;6.03;2.23;;;17.40;94.40;;;;;;5074165;28;20464;-62
2023/08/26 02:03:32;;;;;;;3.40;2.90;;;17.40;94.60;;;;;;5074079;28;20424;-62
2023/08/26 02:05:58;;;;;;;9.23;3.23;;;17.40;94.90;;;;;;5074064;28;20444;-62
2023/08/26 02:08:25;;;;;;;3.23;2.30;;;17.40;94.60;;;;;;5074252;28;20445;-62
2023/08/26 02:10:54;;;;;;;4.50;3.07;;;17.40;94.90;;;;;;5073938;28;20448;-62
2023/08/26 02:13:21;;;;;;;5.13;3.07;;;17.30;95.10;;;;;;5073997;28;20453;-62
2023/08/26 02:15:49;;;;;;;5.80;3.00;;;17.30;94.90;;;;;;5073881;28;20445;-62
2023/08/26 02:18:16;;;;;;;5.40;3.00;;;17.20;95.00;;;;;;5073743;28;20475;-62
2023/08/26 02:20:43;;;;;;;3.23;2.80;;;17.20;94.90;;;;;;5073536;28;20456;-62
2023/08/26 02:23:10;;;;;;;5.20;2.70;;;17.30;95.10;;;;;;5073995;28;20436;-62
2023/08/26 02:25:39;;;;;;;7.47;3.43;;;17.30;95.20;;;;;;5073505;28;21052;-62
2023/08/26 02:28:06;;;;;;;2.80;2.60;;;17.30;95.00;;;;;;5074037;28;20448;-62
2023/08/26 02:30:33;;;;;;;3.90;2.60;;;17.40;94.90;;;;;;5073713;28;20794;-62
2023/08/26 02:33:01;;;;;;;5.73;2.70;;;17.40;94.70;;;;;;5073510;28;20464;-62
2023/08/26 02:35:27;;;;;;;6.33;2.70;;;17.40;94.60;;;;;;5073857;28;20441;-62
2023/08/26 02:37:54;;;;;;;4.10;2.00;;;17.30;94.80;;;;;;5073483;28;20494;-62
2023/08/26 02:40:22;;;;;;;6.03;2.73;;;17.40;94.80;;;;;;5073581;28;20445;-62
2023/08/26 02:42:48;;;;;;;7.00;2.73;;;17.40;94.50;;;;;;5073408;28;20468;-62
2023/08/26 02:45:15;;;;;;;3.03;1.90;;;17.40;94.90;;;;;;5073529;28;20440;-62
2023/08/26 02:47:42;;;;;;;4.27;2.17;;;17.40;95.00;;;;;;5073508;28;20472;-62
2023/08/26 02:50:10;;;;;;;3.83;2.20;;;17.50;94.70;;;;;;5073532;28;20452;-62
2023/08/26 02:52:37;;;;;;;3.93;2.50;;;17.50;94.60;;;;;;5073033;28;20996;-62
2023/08/26 02:55:04;;;;;;;3.83;2.63;;;17.50;94.60;;;;;;5073398;28;20441;-62
2023/08/26 02:57:31;;;;;;;3.43;1.97;;;17.50;94.70;;;;;;5073295;28;20503;-62
2023/08/26 02:59:58;;;;;;;9.13;2.90;;;17.50;94.70;;;;;;5073385;28;20451;-62
2023/08/26 03:02:25;;;;;;;5.43;2.23;;;17.50;94.80;;;;;;5073245;28;20460;-62
2023/08/26 03:04:52;;;;;;;4.03;2.77;;;17.50;94.60;;;;;;5073362;28;20882;-62
2023/08/26 03:07:20;;;;;;;4.07;2.37;;;17.50;94.60;;;;;;5073422;28;20448;-62
2023/08/26 03:09:46;;;;;;;7.27;2.70;;;17.60;94.90;;;;;;5073244;28;20448;-62
2023/08/26 03:12:13;;;;;;;6.30;3.03;;;17.60;94.90;;;;;;5073198;28;20468;-62
2023/08/26 03:14:40;;;;;;;9.60;3.00;;;17.60;94.40;;;;;;5073260;28;20444;-62
2023/08/26 03:17:06;;;;;;;5.03;3.03;;;17.60;94.10;;;;;;5073136;28;20444;-62
2023/08/26 03:19:34;;;;;;;8.23;3.10;;;17.60;94.40;;;;;;5073083;28;20444;-62
2023/08/26 03:22:00;;;;;;;4.40;2.67;;;17.60;94.20;;;;;;5072688;28;20480;-62
2023/08/26 03:24:28;;;;;;;5.13;3.20;;;17.50;94.10;;;;;;5073151;28;20443;-63
2023/08/26 03:26:55;;;;;;;7.10;3.60;;;17.50;94.20;;;;;;5073160;28;20447;-62
2023/08/26 03:29:22;;;;;;;4.37;3.10;;;17.40;94.40;;;;;;5073114;28;20540;-62
2023/08/26 03:31:49;;;;;;;6.40;3.40;;;17.50;94.80;;;;;;5072978;28;20483;-62
2023/08/26 03:34:16;;;;;;;6.40;3.67;;;17.50;94.80;;;;;;5073137;28;20452;-62
2023/08/26 03:36:42;;;;;;;5.27;2.93;;;17.50;94.40;;;;;;5073154;28;20453;-63
2023/08/26 03:39:09;;;;;;;10.60;3.33;;;17.50;94.40;;;;;;5073249;28;20492;-62
2023/08/26 03:41:37;;;;;;;9.57;3.53;;;17.50;94.10;;;;;;5073361;28;20522;-62
2023/08/26 03:44:04;;;;;;;7.97;3.33;;;17.40;94.10;;;;;;5074115;28;20795;-62
2023/08/26 03:46:31;;;;;;;5.10;2.60;;;17.40;94.20;;;;;;5074070;28;20480;-62
2023/08/26 03:48:58;;;;;;;8.63;3.30;;;17.40;94.20;;;;;;5074828;28;20443;-62
2023/08/26 03:51:25;;;;;;;6.50;2.80;;;17.40;94.10;;;;;;5077122;28;20464;-62
2023/08/26 03:53:51;;;;;;;4.70;2.83;;;17.40;93.90;;;;;;5076896;28;20584;-62
2023/08/26 03:56:18;;;;;;;6.30;2.43;;;17.40;93.70;;;;;;5076628;28;20961;-62
2023/08/26 03:58:46;;;;;;;10.50;2.80;;;17.40;93.70;;;;;;5076634;28;20476;-62
2023/08/26 04:01:13;;;;;;;7.03;2.60;;;17.40;93.60;;;;;;5076319;28;20985;-62
2023/08/26 04:03:40;;;;;;;4.20;2.00;;;17.40;93.90;;;;;;5076741;28;20449;-62
2023/08/26 04:06:06;;;;;;;10.53;2.40;;;17.40;93.70;;;;;;5076305;28;20449;-62
2023/08/26 04:08:34;;;;;;;3.30;1.87;;;17.40;93.60;;;;;;5076498;28;20440;-62
2023/08/26 04:11:02;;;;;;;4.63;2.40;;;17.40;93.60;;;;;;5076513;28;20464;-62
2023/08/26 04:13:29;;;;;;;2.20;1.83;;;17.40;93.60;;;;;;5076154;28;20444;-62
2023/08/26 04:15:58;;;;;;;8.20;2.23;;;17.40;93.20;;;;;;5076464;28;20440;-63
2023/08/26 04:18:25;;;;;;;4.83;1.67;;;17.50;93.20;;;;;;5076256;28;20480;-63
2023/08/26 04:20:52;;;;;;;5.50;2.27;;;17.40;93.20;;;;;;5076236;28;20440;-63
2023/08/26 04:23:19;;;;;;;6.07;1.90;;;17.40;93.10;;;;;;5076384;28;20461;-63
2023/08/26 04:25:45;;;;;;;10.47;2.13;;;17.40;93.30;;;;;;5076252;28;20519;-63
2023/08/26 04:28:12;;;;;;;3.57;1.90;;;17.40;93.40;;;;;;5075941;28;20448;-62
2023/08/26 04:30:39;;;;;;;8.00;1.90;;;17.40;93.40;;;;;;5075988;28;20441;-63
2023/08/26 04:33:07;;;;;;;3.70;1.80;;;17.40;93.50;;;;;;5075913;28;20440;-62
2023/08/26 04:35:34;;;;;;;3.73;1.80;;;17.40;93.20;;;;;;5075956;28;20448;-62
2023/08/26 04:38:01;;;;;;;5.30;2.10;;;17.30;92.90;;;;;;5075846;28;20484;-62
2023/08/26 04:40:28;;;;;;;3.37;1.87;;;17.30;93.30;;;;;;5075834;28;20450;-63
2023/08/26 04:42:55;;;;;;;7.67;2.20;;;17.40;93.40;;;;;;5075582;28;20464;-62
2023/08/26 04:45:22;;;;;;;5.23;1.93;;;17.40;93.40;;;;;;5075483;28;20448;-62
2023/08/26 04:47:49;;;;;;;4.63;1.77;;;17.40;93.20;;;;;;5075751;28;20445;-62
2023/08/26 04:50:18;;;;;;;6.23;2.40;;;17.40;92.90;;;;;;5075676;28;20452;-63
2023/08/26 04:52:44;;;;;;;4.90;1.87;;;17.50;93.20;;;;;;5075572;28;20586;-62
2023/08/26 04:55:11;;;;;;;5.93;2.07;;;17.40;93.20;;;;;;5075808;28;20445;-62
2023/08/26 04:57:38;;;;;;;9.03;1.80;;;17.50;93.10;;;;;;5075478;28;20441;-62
2023/08/26 05:00:08;;;;;;;3.60;1.90;;;17.50;93.00;;;;;;5074906;28;20444;-63
2023/08/26 05:02:35;;;;;;;3.67;1.67;;;17.50;92.70;;;;;;5074898;28;20468;-63
2023/08/26 05:05:02;;;;;;;4.77;2.10;;;17.50;92.60;;;;;;5075375;28;20445;-63
2023/08/26 05:07:30;;;;;;;8.97;1.80;;;17.40;92.60;;;;;;5075292;28;20445;-63
2023/08/26 05:09:57;;;;;;;5.43;2.40;;;17.40;92.50;;;;;;5075318;28;20448;-63
2023/08/26 05:12:24;;;;;;;7.60;2.20;;;17.50;92.10;;;;;;5075172;28;20846;-63
2023/08/26 05:14:50;;;;;;;4.20;1.50;;;17.40;92.10;;;;;;5074894;28;20453;-63
2023/08/26 05:17:17;;;;;;;5.37;1.57;;;17.40;92.20;;;;;;5075154;28;20472;-63
2023/08/26 05:19:44;;;;;;;4.83;1.40;;;17.40;92.10;;;;;;5074969;28;20851;-63
2023/08/26 05:22:10;;;;;;;5.03;1.80;;;17.40;91.80;;;;;;5074761;28;20476;-63
2023/08/26 05:24:38;;;;;;;6.37;1.60;;;17.30;91.90;;;;;;5074941;28;20464;-62
2023/08/26 05:27:05;;;;;;;4.57;1.37;;;17.30;92.00;;;;;;5074927;28;20445;-62
2023/08/26 05:29:32;;;;;;;4.10;1.40;;;17.30;91.90;;;;;;5075481;28;20441;-62
2023/08/26 05:31:59;;;;;;;3.50;1.20;;;17.30;91.70;;;;;;5075061;28;20472;-62
2023/08/26 05:34:25;;;;;;;6.73;1.37;;;17.40;91.70;;;;;;5075073;28;20440;-62
2023/08/26 05:36:52;;;;;;;2.27;1.10;;;17.40;91.20;;;;;;5074759;28;20448;-62
2023/08/26 05:39:19;;;;;;;2.80;1.10;;;17.40;91.50;;;;;;5074622;28;20488;-62
2023/08/26 05:41:47;;;;;;;4.07;1.60;;;17.50;91.90;;;;;;5074577;28;20468;-62
2023/08/26 05:44:13;;;;;;;4.67;1.10;;;17.50;91.70;;;;;;5075267;28;20440;-63
2023/08/26 05:46:40;;;;;;;4.37;1.00;;;17.40;91.70;;;;;;5076970;28;20452;-62
2023/08/26 05:49:07;;;;;;;3.43;1.33;;;17.40;91.40;;;;;;5075999;28;20436;-63
2023/08/26 05:51:33;;;;;;;4.27;1.37;;;17.40;91.40;;;;;;5074171;28;20476;-62
2023/08/26 05:54:00;;;;;;;1.47;1.37;;;17.40;91.50;;;;;;5074306;28;20445;-62
2023/08/26 05:56:27;;;;;;;1.60;1.37;;;17.50;91.60;;;;;;5074327;28;20455;-62
2023/08/26 05:58:55;;;;;;;2.10;1.30;;;17.50;91.70;;;;;;5074449;28;20472;-62
2023/08/26 06:01:21;;;;;;;2.20;1.37;;;17.50;91.80;;;;;;5073781;28;20834;-62
2023/08/26 06:03:48;;;;;;;6.30;1.97;;;17.50;91.80;;;;;;5074093;28;20440;-62
2023/08/26 06:06:15;;;;;;;3.40;1.60;;;17.50;91.70;;;;;;5074375;28;20444;-62
2023/08/26 06:08:41;;;;;;;5.23;1.70;;;17.60;91.80;;;;;;5073973;28;20441;-63
2023/08/26 06:11:09;;;;;;;3.77;1.20;;;17.60;92.00;;;;;;5073850;28;20471;-62
2023/08/26 06:13:36;;;;;;;4.33;1.73;;;17.60;91.80;;;;;;5073601;28;20455;-62
2023/08/26 06:16:04;;;;;;;2.60;1.40;;;17.60;91.70;;;;;;5073822;28;20448;-62
2023/08/26 06:18:31;;;;;;;6.60;1.80;;;17.70;91.80;;;;;;5073746;28;20484;-62
2023/08/26 06:20:58;;;;;;;3.80;1.50;;;17.80;91.50;;;;;;5073565;28;20447;-62
2023/08/26 06:23:24;;;;;;;3.07;1.27;;;17.80;91.80;;;;;;5073865;28;20425;-62
2023/08/26 06:25:52;;;;;;;2.87;1.50;;;17.90;91.60;;;;;;5073368;28;20977;-62
2023/08/26 06:28:19;;;;;;;4.43;1.30;;;17.90;91.40;;;;;;5073858;28;20444;-62
2023/08/26 06:30:46;;;;;;;9.13;1.67;;;17.90;91.60;;;;;;5073705;28;20471;-62
2023/08/26 06:33:14;;;;;;;3.90;1.50;;;17.90;91.40;;;;;;5073392;28;20961;-62
2023/08/26 06:35:41;;;;;;;5.13;0.97;;;18.00;91.30;;;;;;5073747;28;20451;-62
2023/08/26 06:38:08;;;;;;;4.87;1.50;;;18.10;90.60;;;;;;5073405;28;20441;-62
2023/08/26 06:40:34;;;;;;;4.20;1.70;;;18.00;90.30;;;;;;5073671;28;20445;-62
2023/08/26 06:43:03;;;;;;;2.60;1.27;;;18.00;90.50;;;;;;5073658;28;20526;-62
2023/08/26 06:45:30;;;;;;;3.50;1.37;;;18.10;90.90;;;;;;5073249;28;20934;-62
2023/08/26 06:47:57;;;;;;;2.63;1.00;;;18.10;90.60;;;;;;5073138;28;20939;-62
2023/08/26 06:50:25;;;;;;;3.40;1.23;;;18.20;90.60;;;;;;5073172;28;20448;-62
2023/08/26 06:52:52;;;;;;;1.10;1.00;;;18.20;90.70;;;;;;5073315;28;20464;-62
2023/08/26 06:55:19;;;;;;;1.20;1.00;;;18.30;90.40;;;;;;5073128;28;20954;-63
2023/08/26 06:57:46;;;;;;;3.10;1.50;;;18.30;90.20;;;;;;5073742;28;20455;-63
2023/08/26 07:00:14;;;;;;;4.20;1.50;;;18.40;90.30;;;;;;5073147;28;20868;-62
2023/08/26 07:02:41;;;;;;;3.00;1.47;;;18.40;90.40;;;;;;5073703;28;20461;-62
2023/08/26 07:05:08;;;;;;;3.43;1.57;;;18.50;90.40;;;;;;5074007;28;20437;-62
2023/08/26 07:07:36;;;;;;;3.67;1.30;;;18.60;89.50;;;;;;5073424;28;20882;-62
2023/08/26 07:10:03;;;;;;;2.73;1.50;;;18.60;89.00;;;;;;5073504;28;20479;-62
2023/08/26 07:12:31;;;;;;;6.73;1.47;;;18.70;89.00;;;;;;5073373;28;20507;-62
2023/08/26 07:14:58;;;;;;;3.90;1.20;;;18.80;89.30;;;;;;5073538;28;20449;-62
2023/08/26 07:17:24;;;;;;;7.70;1.30;;;18.80;89.30;;;;;;5073113;28;20859;-62
2023/08/26 07:19:51;;;;;;;5.03;1.40;;;18.90;88.50;;;;;;5073119;28;20488;-62
2023/08/26 07:22:18;;;;;;;2.07;1.30;;;19.00;88.90;;;;;;5073191;28;20517;-64
2023/08/26 07:24:46;;;;;;;5.27;1.40;;;19.00;87.50;;;;;;5075288;28;20464;-63
2023/08/26 07:27:13;;;;;;;3.77;1.20;;;19.10;87.10;;;;;;5078126;28;20467;-62
2023/08/26 07:29:39;;;;;;;4.30;1.00;;;19.10;86.10;;;;;;5077157;28;20550;-62
2023/08/26 07:32:06;;;;;;;2.93;1.00;;;19.20;86.90;;;;;;5077131;28;20464;-62
2023/08/26 07:34:33;;;;;;;3.13;1.00;;;19.20;85.10;;;;;;5077141;28;20453;-62
2023/08/26 07:37:00;;;;;;;4.20;1.43;;;19.30;84.90;;;;;;5076868;28;20444;-62
2023/08/26 07:39:26;;;;;;;4.47;1.53;;;19.30;86.30;;;;;;5077013;28;20480;-62
2023/08/26 07:41:54;;;;;;;6.67;1.10;;;19.40;86.10;;;;;;5076775;28;20492;-62
2023/08/26 07:44:21;;;;;;;1.90;0.90;;;19.60;85.50;;;;;;5077060;28;20440;-62
2023/08/26 07:46:49;;;;;;;3.97;1.13;;;19.70;84.20;;;;;;5076933;28;20472;-61
2023/08/26 07:49:16;;;;;;;3.63;1.00;;;19.80;83.80;;;;;;5076885;28;20451;-61
2023/08/26 07:51:43;;;;;;;2.93;0.87;;;19.90;83.60;;;;;;5076885;28;20468;-63
2023/08/26 07:54:10;;;;;;;4.30;1.30;;;20.00;83.40;;;;;;5076760;28;20467;-62
2023/08/26 07:56:36;;;;;;;2.87;1.30;;;20.10;83.10;;;;;;5076688;28;20436;-62
2023/08/26 07:59:04;;;;;;;2.83;0.93;;;20.20;82.20;;;;;;5076291;28;20487;-58
2023/08/26 08:01:31;;;;;;;5.87;1.40;;;20.30;80.80;;;;;;5076319;28;20978;-62
2023/08/26 08:03:58;;;;;;;6.23;1.23;;;20.40;80.00;;;;;;5076533;28;20448;-62
2023/08/26 08:06:25;;;;;;;2.73;1.13;;;20.40;80.10;;;;;;5076420;28;20452;-62
2023/08/26 08:08:52;;;;;;;2.70;1.10;;;20.40;79.20;;;;;;5076580;28;20432;-63
2023/08/26 08:11:18;;;;;;;7.07;1.10;;;20.50;77.40;;;;;;5076431;28;20460;-62
2023/08/26 08:13:45;;;;;;;3.57;1.00;;;20.60;77.00;;;;;;5076436;28;20437;-62
2023/08/26 08:16:14;;;;;;;5.50;1.50;;;20.60;77.30;;;;;;5075992;28;20857;-61
2023/08/26 08:18:41;;;;;;;4.50;1.20;;;20.70;76.10;;;;;;5076133;28;20444;-62
2023/08/26 08:21:08;;;;;;;2.57;0.90;;;20.70;76.70;;;;;;5075930;28;20476;-62
2023/08/26 08:23:35;;;;;;;3.00;1.07;;;20.80;76.90;;;;;;5076392;28;20861;-62
2023/08/26 08:26:03;;;;;;;1.83;1.10;;;20.90;74.70;;;;;;5076114;28;20445;-62
2023/08/26 08:28:30;;;;;;;2.30;1.10;;;21.00;74.20;;;;;;5076100;28;20448;-62
2023/08/26 08:30:56;;;;;;;2.70;0.73;;;20.90;72.80;;;;;;5076005;28;20449;-62
2023/08/26 08:33:24;;;;;;;2.80;0.90;;;21.00;73.60;;;;;;5075619;28;20479;-62
2023/08/26 08:35:51;;;;;;;2.57;1.00;;;21.10;72.60;;;;;;5075564;28;20452;-62
2023/08/26 08:38:18;;;;;;;3.63;0.93;;;21.10;72.30;;;;;;5075409;28;20903;-62
2023/08/26 08:40:45;;;;;;;1.87;0.73;;;21.30;73.80;;;;;;5075673;28;20480;-62
2023/08/26 08:43:13;;;;;;;6.23;1.67;;;21.50;71.00;;;;;;5075811;28;20448;-62
2023/08/26 08:45:40;;;;;;;0.83;0.70;;;21.60;68.80;;;;;;5075773;28;20441;-62
2023/08/26 08:48:07;;;;;;;2.63;0.90;;;21.70;70.20;;;;;;5075784;28;20445;-62
2023/08/26 08:50:35;;;;;;;2.57;0.90;;;21.90;68.50;;;;;;5075431;28;20468;-62
2023/08/26 08:53:03;;;;;;;1.33;0.70;;;22.00;69.10;;;;;;5075881;28;20460;-62
2023/08/26 08:55:30;;;;;;;1.90;0.83;;;22.10;67.60;;;;;;5076114;28;20475;-63
2023/08/26 08:57:58;;;;;;;2.80;0.83;;;22.20;66.80;;;;;;5075817;28;20451;-62
2023/08/26 09:00:25;;;;;;;1.73;0.80;;;22.30;65.90;;;;;;5075334;28;21002;-62
2023/08/26 09:02:55;;;;;;;1.67;0.70;;;22.30;66.00;;;;;;5075715;28;20521;-62
2023/08/26 09:05:23;;;;;;;1.80;0.67;;;22.40;67.20;;;;;;5075602;28;20444;-62
2023/08/26 09:07:52;;;;;;;1.93;0.90;;;22.60;64.40;;;;;;5075706;28;20440;-62
2023/08/26 09:10:21;;;;;;;2.30;0.80;;;22.70;63.80;;;;;;5075355;28;20821;-62
2023/08/26 09:12:48;;;;;;;4.70;0.80;;;22.70;62.10;;;;;;5074897;28;21088;-62
2023/08/26 09:15:15;;;;;;;0.90;0.70;;;22.90;63.70;;;;;;5075218;28;20449;-62
2023/08/26 09:17:45;;;;;;;1.83;0.90;;;23.10;64.90;;;;;;5075137;28;20444;-62
2023/08/26 09:20:12;;;;;;;2.23;1.17;;;23.20;61.70;;;;;;5074981;28;20500;-62
2023/08/26 09:22:39;;;;;;;0.87;0.80;;;23.30;60.00;;;;;;5074406;28;20512;-62
2023/08/26 09:25:07;;;;;;;0.93;0.60;;;23.40;62.30;;;;;;5074682;28;20441;-62
2023/08/26 09:27:35;;;;;;;3.53;1.23;;;23.30;59.90;;;;;;5075848;28;20813;-62
2023/08/26 09:30:03;;;;;;;1.80;0.80;;;23.30;60.00;;;;;;5074899;28;20441;-62
2023/08/26 09:32:34;;;;;;;1.53;0.90;;;23.20;58.20;;;;;;5074948;28;20461;-62
2023/08/26 09:35:11;;;;;;;1.77;0.90;;;23.10;59.80;;;;;;5074421;28;20942;-61
2023/08/26 09:37:38;;;;;;;1.97;0.90;;;23.10;59.20;;;;;;5074409;28;20441;-62
2023/08/26 09:40:08;;;;;;;1.07;0.90;;;23.30;61.20;;;;;;5074287;28;20484;-62
2023/08/26 09:42:35;;;;;;;2.00;0.80;;;23.50;60.10;;;;;;5074507;28;20465;-62
2023/08/26 09:45:02;;;;;;;1.47;0.80;;;23.60;58.20;;;;;;5074281;28;20938;-62
2023/08/26 09:47:29;;;;;;;2.03;0.70;;;23.70;57.90;;;;;;5073880;28;20536;-61
2023/08/26 09:49:56;;;;;;;1.97;1.00;;;23.80;59.90;;;;;;5074411;28;20441;-62
2023/08/26 09:52:24;;;;;;;2.43;0.70;;;23.90;57.70;;;;;;5074004;28;20832;-62
2023/08/26 09:54:52;;;;;;;1.17;0.60;;;24.00;57.70;;;;;;5074302;28;20449;-62
2023/08/26 09:57:20;;;;;;;4.23;0.83;;;24.10;56.90;;;;;;5074272;28;20452;-60
2023/08/26 09:59:47;;;;;;;3.43;1.17;;;24.10;59.00;;;;;;5074123;28;20848;-59
2023/08/26 10:02:21;;;;;;;5.70;1.17;;;24.00;56.50;;;;;;5074077;28;20461;-60
2023/08/26 10:04:52;;;;;;;3.23;0.90;;;23.80;58.80;;;;;;5074135;28;20459;-59
2023/08/26 10:07:20;;;;;;;0.90;0.60;;;23.80;59.50;;;;;;5074805;28;20429;-60
2023/08/26 10:09:51;;;;;;;4.10;0.80;;;23.80;56.70;;;;;;5074363;28;20474;-60
2023/08/26 10:12:26;;;;;;;2.80;0.80;;;23.90;58.40;;;;;;5074314;28;20472;-60
2023/08/26 10:14:55;;;;;;;1.40;0.70;;;24.00;58.60;;;;;;5074442;28;20882;-60
2023/08/26 10:17:22;;;;;;;1.67;0.80;;;24.30;56.30;;;;;;5074417;28;20440;-60
2023/08/26 10:19:49;;;;;;;1.33;0.60;;;24.00;55.40;;;;;;5074228;28;20481;-60
2023/08/26 10:22:16;;;;;;;1.93;0.80;;;24.10;58.10;;;;;;5073866;28;20473;-60
2023/08/26 10:24:45;;;;;;;1.43;0.60;;;24.00;54.70;;;;;;5073908;28;20444;-59
2023/08/26 10:27:12;;;;;;;0.80;0.60;;;24.10;56.90;;;;;;5073756;28;20445;-59
2023/08/26 10:29:40;;;;;;;4.73;1.20;;;24.20;55.50;;;;;;5073409;28;20564;-60
2023/08/26 10:32:17;;;;;;;1.27;0.70;;;24.40;55.10;;;;;;5073760;28;20472;-59
2023/08/26 10:34:53;;;;;;;1.03;0.73;;;24.60;54.30;;;;;;5073367;28;20530;-59
2023/08/26 10:37:20;;;;;;;2.30;1.13;;;24.60;55.90;;;;;;5073687;28;20862;-60
2023/08/26 10:39:46;;;;;;;2.20;0.47;;;24.90;56.80;;;;;;5073577;28;20893;-60
2023/08/26 10:42:16;;;;;;;2.43;0.80;;;25.30;53.60;;;;;;5074138;28;20464;-60
2023/08/26 10:44:47;;;;;;;2.20;0.70;;;25.40;54.00;;;;;;5073501;28;20448;-60
2023/08/26 10:47:34;;;;;;;1.77;0.80;;;25.70;52.00;;;;;;5073634;28;20426;-60
2023/08/26 10:50:18;;;;;;;4.20;0.80;;;26.20;50.40;;;;;;5073514;28;20474;-60
2023/08/26 10:52:45;;;;;;;1.97;0.60;;;26.50;50.70;;;;;;5073380;28;20472;-60
2023/08/26 10:55:19;;;;;;;1.97;0.90;;;26.10;49.50;;;;;;5073380;28;20444;-60
2023/08/26 10:58:02;;;;;;;1.43;0.87;;;25.90;51.70;;;;;;5073406;28;20432;-60
2023/08/26 11:00:30;;;;;;;1.10;0.63;;;25.70;51.20;;;;;;5073373;28;20461;-60
2023/08/26 11:02:56;;;;;;;3.70;0.70;;;26.00;50.20;;;;;;5072902;28;20838;-60
2023/08/26 11:05:24;;;;;;;4.40;1.00;;;25.80;50.90;;;;;;5073327;28;20448;-60
2023/08/26 11:07:51;;;;;;;5.10;0.97;;;26.50;53.40;;;;;;5073107;28;20554;-60
2023/08/26 11:10:25;;;;;;;4.43;0.97;;;27.30;47.20;;;;;;5073049;28;20971;-60
2023/08/26 11:12:52;;;;;;;1.83;0.77;;;27.90;46.30;;;;;;5073200;28;20472;-59
2023/08/26 11:15:19;;;;;;;2.50;1.00;;;28.20;44.80;;;;;;5073211;28;20444;-54
2023/08/26 11:17:48;;;;;;;1.60;0.90;;;28.20;44.70;;;;;;5073186;28;20467;-54
2023/08/26 11:20:16;;;;;;;3.97;0.73;;;27.70;45.60;;;;;;5073007;28;20476;-54
2023/08/26 11:22:43;;;;;;;1.30;0.97;;;26.90;45.90;;;;;;5072911;28;20477;-58
2023/08/26 11:25:13;;;;;;;3.37;0.83;;;26.40;48.00;;;;;;5073365;28;20444;-59
2023/08/26 11:27:40;;;;;;;4.67;1.30;;;25.50;48.40;;;;;;5073348;28;20487;-59
2023/08/26 11:30:09;;;;;;;1.97;0.60;;;24.90;49.80;;;;;;5072768;28;20969;-59
2023/08/26 11:32:36;;;;;;;4.17;0.93;;;24.30;51.20;;;;;;5073026;28;20461;-59
2023/08/26 11:35:05;;;;;;;3.50;1.23;;;24.40;55.20;;;;;;5073318;28;20440;-59
2023/08/26 11:37:35;;;;;;;2.40;0.90;;;24.90;53.00;;;;;;5073047;28;20443;-60
2023/08/26 11:40:02;;;;;;;1.57;0.80;;;25.60;52.60;;;;;;5072918;28;20479;-59
2023/08/26 11:42:29;;;;;;;1.57;0.90;;;26.70;49.40;;;;;;5072594;28;20978;-59
2023/08/26 11:44:56;;;;;;;2.20;1.17;;;27.10;49.30;;;;;;5072964;28;20784;-59
2023/08/26 11:47:24;;;;;;;0.63;0.63;;;27.10;47.40;;;;;;5072657;28;20444;-59
2023/08/26 11:49:54;;;;;;;2.20;0.80;;;26.90;48.40;;;;;;5073005;28;20452;-59
2023/08/26 11:52:23;;;;;;;2.80;0.80;;;26.60;47.40;;;;;;5073471;28;20461;-59
2023/08/26 11:54:52;;;;;;;2.10;1.03;;;26.00;48.90;;;;;;5072854;28;20444;-59
2023/08/26 11:57:23;;;;;;;3.53;0.90;;;25.90;51.00;;;;;;5073080;28;20440;-59
2023/08/26 11:59:49;;;;;;;3.60;1.00;;;26.70;47.80;;;;;;5072640;28;20448;-59
2023/08/26 12:02:24;;;;;;;2.80;0.80;;;27.00;47.10;;;;;;5072707;28;20468;-59
2023/08/26 12:04:58;;;;;;;2.77;1.30;;;27.50;47.80;;;;;;5072712;28;20509;-59
2023/08/26 12:07:26;;;;;;;0.97;0.77;;;28.40;46.60;;;;;;5072703;28;20441;-59
2023/08/26 12:09:53;;;;;;;2.30;0.90;;;29.60;44.10;;;;;;5073047;28;20992;-60
2023/08/26 12:12:20;;;;;;;0.83;0.67;;;30.60;39.90;;;;;;5076312;28;20472;-59
2023/08/26 12:14:47;;;;;;;2.53;1.10;;;31.00;39.20;;;;;;5076345;28;20471;-59
2023/08/26 12:17:15;;;;;;;1.33;0.90;;;30.40;39.40;;;;;;5075932;28;20963;-59
2023/08/26 12:19:42;;;;;;;1.07;0.80;;;30.20;41.50;;;;;;5076094;28;20447;-59
2023/08/26 12:22:10;;;;;;;2.13;1.00;;;30.00;40.40;;;;;;5075868;28;20993;-59
2023/08/26 12:24:39;;;;;;;2.67;0.80;;;29.90;39.60;;;;;;5076115;28;20451;-59
2023/08/26 12:27:08;;;;;;;2.30;1.00;;;30.10;38.10;;;;;;5076092;28;20471;-59
2023/08/26 12:29:36;;;;;;;2.17;0.80;;;30.40;37.00;;;;;;5076266;28;20416;-59
2023/08/26 12:32:04;;;;;;;2.87;0.90;;;31.00;36.90;;;;;;5075937;28;20462;-59
2023/08/26 12:34:30;;;;;;;1.70;0.87;;;31.40;35.00;;;;;;5075922;28;20513;-59
2023/08/26 12:36:58;;;;;;;2.17;1.07;;;31.30;35.00;;;;;;5076009;28;20439;-60
2023/08/26 12:39:25;;;;;;;2.20;0.80;;;31.00;35.00;;;;;;5076086;28;20452;-59
2023/08/26 12:41:53;;;;;;;2.57;0.90;;;30.20;37.60;;;;;;5075818;28;20899;-59
2023/08/26 12:44:22;;;;;;;1.83;0.80;;;30.50;37.90;;;;;;5075644;28;20977;-59
2023/08/26 12:46:48;;;;;;;2.93;0.83;;;31.10;34.70;;;;;;5076028;28;20439;-58